Containerships 6 — DABH — position and weather

sailwx.info

Track history (hours):
 
Tides and Currents Weather Stations Pressure Air Temp Water Temp Dewpoint Dewpoint Depression Visibility Wind Speed Wind Dir Waves Ship Positions

Containerships 6

Last reported at 2017-Jun-26 12:00 UTC. Time now 2017-Jun-26 12:22 UTC.
Position N 60°13' E 025°12'.

Length 155 m; beam 21.8 m; draft 8.9 m.

Type: Ship (hazmat cat A). MMSI: 211315096.

Date/timePositionNaut miles runAvg speedWind from/ knotsBaromVisibWave heightAir tempDewpointWater temp
2017-Jun-26 12:00N 60°13' E 025°12'0 0.0
2017-Jun-26 11:30N 60°13' E 025°12'0 0.0
2017-Jun-26 11:00N 60°13' E 025°12'0 0.0
2017-Jun-26 10:30N 60°13' E 025°12'0 0.0
2017-Jun-26 10:00N 60°13' E 025°12'0 0.0
2017-Jun-26 09:30N 60°13' E 025°12'0 0.0
2017-Jun-26 09:00N 60°13' E 025°12'0 0.0
2017-Jun-26 08:30N 60°13' E 025°12'0 0.0
2017-Jun-26 08:00N 60°13' E 025°12'0 0.0
2017-Jun-26 07:30N 60°13' E 025°12'0 0.0
2017-Jun-26 07:00N 60°13' E 025°12'0 0.0
2017-Jun-26 06:30N 60°13' E 025°12'0 0.0
2017-Jun-26 06:00N 60°13' E 025°12'0 0.0
2017-Jun-26 05:30N 60°13' E 025°12'0 0.0
2017-Jun-26 05:00N 60°13' E 025°12'0 0.0
2017-Jun-26 04:30N 60°13' E 025°12'0 0.0
2017-Jun-26 04:00N 60°13' E 025°12'0 0.0
2017-Jun-26 03:30N 60°13' E 025°12'1 2.1
2017-Jun-26 03:00N 60°12' E 025°13'713.9
2017-Jun-26 02:30N 60°05' E 025°10'917.9
2017-Jun-26 02:00N 59°57' E 025°04'816.7
2017-Jun-26 01:31N 59°50' E 024°56'816.4
2017-Jun-26 01:00N 59°46' E 024°42'816.4
2017-Jun-26 00:30N 59°44' E 024°26'816.2
2017-Jun-26 00:01N 59°42' E 024°11'816.3
2017-Jun-25 23:30N 59°39' E 023°55'816.1
2017-Jun-25 23:01N 59°37' E 023°40'815.9
2017-Jun-25 22:31N 59°34' E 023°25'815.9
2017-Jun-25 22:00N 59°31' E 023°11'815.8
2017-Jun-25 21:30N 59°29' E 022°56'815.8
2017-Jun-25 21:00N 59°26' E 022°41'815.6
2017-Jun-25 20:30N 59°22' E 022°28'816.0
2017-Jun-25 20:00N 59°17' E 022°16'816.2
2017-Jun-25 19:30N 59°12' E 022°04'816.3
2017-Jun-25 19:00N 59°06' E 021°52'816.3
2017-Jun-25 18:30N 59°00' E 021°41'816.7
2017-Jun-25 18:00N 58°54' E 021°32'816.4
2017-Jun-25 17:30N 58°47' E 021°23'816.3
2017-Jun-25 17:00N 58°40' E 021°15'816.6
2017-Jun-25 16:30N 58°33' E 021°05'20616.8
2017-Jun-25 04:14N 56°03' E 016°45'417.2
2017-Jun-25 04:00N 56°01' E 016°39'917.2
2017-Jun-25 03:31N 55°57' E 016°26'917.3
2017-Jun-25 03:00N 55°52' E 016°12'917.4
2017-Jun-25 02:31N 55°48' E 015°59'917.5
2017-Jun-25 02:01N 55°44' E 015°46'917.6
2017-Jun-25 01:31N 55°39' E 015°32'917.7
2017-Jun-25 01:01N 55°35' E 015°18'917.6
2017-Jun-25 00:31N 55°31' E 015°05'917.5
2017-Jun-25 00:00N 55°27' E 014°51'917.3
2017-Jun-24 23:30N 55°22' E 014°38'917.3
2017-Jun-24 23:00N 55°15' E 014°28'917.3
2017-Jun-24 22:30N 55°09' E 014°18'917.4
2017-Jun-24 22:00N 55°02' E 014°08'917.3
2017-Jun-24 21:30N 54°59' E 013°54'917.6
2017-Jun-24 21:00N 54°56' E 013°40'917.6
2017-Jun-24 20:29N 54°53' E 013°25'1117.2
2017-Jun-24 19:50N 54°49' E 013°07'617.2
2017-Jun-24 19:31N 54°47' E 012°57'2217.4
2017-Jun-24 18:14N 54°37' E 012°24'517.4
2017-Jun-24 17:56N 54°33' E 012°17'717.2
2017-Jun-24 17:30N 54°27' E 012°12'3416.6
2017-Jun-24 15:29N 54°33' E 011°15'817.4
2017-Jun-24 15:01N 54°35' E 011°01'1717.3
2017-Jun-24 14:00N 54°32' E 010°31'816.5
2017-Jun-24 13:31N 54°29' E 010°18'612.3
2017-Jun-24 13:00N 54°24' E 010°12'37 6.2
2017-Jun-24 07:05N 54°04' E 009°19'1 7.8
2017-Jun-24 06:58N 54°03' E 009°19'2 4.3
2017-Jun-24 06:25N 54°01' E 009°18'3 7.6
2017-Jun-24 06:00N 53°58' E 009°16'2 4.1
2017-Jun-24 05:30N 53°57' E 009°14'1 1.0
2017-Jun-24 05:00N 53°56' E 009°13'3 6.3
2017-Jun-24 04:30N 53°54' E 009°09'1 1.3
2017-Jun-24 04:00N 53°54' E 009°09'1 2.9
2017-Jun-24 03:30N 53°53' E 009°06'0 0.2
2017-Jun-24 03:00N 53°53' E 009°06'0 0.1
2017-Jun-24 02:30N 53°53' E 009°06'0 0.4
2017-Jun-24 02:00N 53°53' E 009°06'0 0.0
2017-Jun-24 01:30N 53°53' E 009°06'1 1.1
2017-Jun-24 01:00N 53°53' E 009°06'611.4
2017-Jun-24 00:30N 53°51' E 008°57'815.8
2017-Jun-24 00:01N 53°52' E 008°44'816.5
2017-Jun-23 23:30N 53°58' E 008°34'918.4
2017-Jun-23 23:00N 53°59' E 008°18'713.0
2017-Jun-23 22:30N 53°59' E 008°07'917.6
2017-Jun-23 22:00N 53°57' E 007°52'7419.4
2017-Jun-23 18:10N 53°38' E 005°51'319.7
2017-Jun-23 18:00N 53°37' E 005°46'1019.7
2017-Jun-23 17:28N 53°33' E 005°29'919.6
2017-Jun-23 17:00N 53°31' E 005°15'1019.6
2017-Jun-23 16:30N 53°27' E 004°59'1019.7
2017-Jun-23 16:00N 53°23' E 004°44'1420.0
2017-Jun-23 15:18N 53°10' E 004°33'620.4
2017-Jun-23 15:00N 53°05' E 004°28'2020.1
2017-Jun-23 14:00N 52°48' E 004°12'1220.0
2017-Jun-23 13:25N 52°38' E 004°02'819.9
2017-Jun-23 13:00N 52°30' E 003°55'1019.8
2017-Jun-23 12:30N 52°21' E 003°52'919.0
2017-Jun-23 12:00N 52°11' E 003°54'918.1
2017-Jun-23 11:30N 52°03' E 003°59'714.8
2017-Jun-23 11:00N 51°58' E 004°08'612.0
2017-Jun-23 10:30N 51°54' E 004°16'5 9.3
2017-Jun-23 10:00N 51°54' E 004°23'2 3.0
2017-Jun-23 09:30N 51°53' E 004°25'0 0.0
2017-Jun-23 09:00N 51°53' E 004°25'0 0.0
2017-Jun-23 08:30N 51°53' E 004°25'0 0.0
2017-Jun-23 08:00N 51°53' E 004°25'0 0.0
2017-Jun-23 07:30N 51°53' E 004°25'0 0.0
2017-Jun-23 07:00N 51°53' E 004°25'0 0.0
2017-Jun-23 06:30N 51°53' E 004°25'0 0.0
2017-Jun-23 06:00N 51°53' E 004°25'0 0.0
2017-Jun-23 05:30N 51°53' E 004°25'0 0.0
2017-Jun-23 05:00N 51°53' E 004°25'0 0.0
2017-Jun-23 04:30N 51°53' E 004°25'0 0.0
2017-Jun-23 04:00N 51°53' E 004°25'0 0.0
2017-Jun-23 03:30N 51°53' E 004°25'0 0.0
2017-Jun-23 03:00N 51°53' E 004°25'0 0.0
2017-Jun-23 02:30N 51°53' E 004°25'0 0.1
2017-Jun-23 02:00N 51°53' E 004°25'0 0.1
2017-Jun-23 01:30N 51°53' E 004°25'0 0.0
2017-Jun-23 01:00N 51°53' E 004°25'0 0.0
2017-Jun-23 00:30N 51°53' E 004°25'0 0.0
2017-Jun-23 00:00N 51°53' E 004°25'0 0.0
2017-Jun-22 23:30N 51°53' E 004°25'0 0.0
2017-Jun-22 23:00N 51°53' E 004°25'0 0.0
2017-Jun-22 22:30N 51°53' E 004°25'0 0.0
2017-Jun-22 22:00N 51°53' E 004°25'0 0.0
2017-Jun-22 21:30N 51°53' E 004°25'0 0.0
2017-Jun-22 21:00N 51°53' E 004°25'0 0.0
2017-Jun-22 20:30N 51°53' E 004°25'0 0.0
2017-Jun-22 20:00N 51°53' E 004°25'0 0.0
2017-Jun-22 19:30N 51°53' E 004°25'0 0.0
2017-Jun-22 19:00N 51°53' E 004°25'0 0.0
2017-Jun-22 18:30N 51°53' E 004°25'0 0.0
2017-Jun-22 18:00N 51°53' E 004°25'0 0.0
2017-Jun-22 17:30N 51°53' E 004°25'0 0.0
2017-Jun-22 17:00N 51°53' E 004°25'0 0.0
2017-Jun-22 16:30N 51°53' E 004°25'0 0.0
2017-Jun-22 16:00N 51°53' E 004°25'3 5.1
2017-Jun-22 15:30N 51°54' E 004°21'510.0
2017-Jun-22 15:01N 51°55' E 004°14'1414.3
2017-Jun-22 14:00N 52°01' E 003°52'918.5
2017-Jun-22 13:31N 52°04' E 003°38'1528.8
2017-Jun-22 13:00N 52°12' E 003°19'4 7.6
2017-Jun-22 12:30N 52°15' E 003°14'1218.2
2017-Jun-22 11:51N 52°21' E 002°57'818.2
2017-Jun-22 11:24N 52°26' E 002°46'718.3
2017-Jun-22 11:00N 52°30' E 002°36'1018.4
2017-Jun-22 10:28N 52°36' E 002°23'918.5
2017-Jun-22 10:00N 52°40' E 002°11'918.5
2017-Jun-22 09:30N 52°46' E 001°59'919.0
2017-Jun-22 09:01N 52°51' E 001°46'918.8
2017-Jun-22 08:30N 52°57' E 001°35'1019.4
2017-Jun-22 08:00N 53°05' E 001°26'1019.5
2017-Jun-22 07:30N 53°13' E 001°17'1019.3
2017-Jun-22 07:00N 53°22' E 001°08'2218.7
2017-Jun-22 05:49N 53°41' E 000°49'1119.1
2017-Jun-22 05:14N 53°49' E 000°35'519.2
2017-Jun-22 04:57N 53°53' E 000°30'919.7
2017-Jun-22 04:29N 53°59' E 000°19'1020.0
2017-Jun-22 04:00N 54°07' E 000°08'1020.4
2017-Jun-22 03:30N 54°14' W 000°03'1020.3
2017-Jun-22 03:01N 54°21' W 000°16'1020.5
2017-Jun-22 02:30N 54°29' W 000°28'2519.4
2017-Jun-22 01:12N 54°40' W 001°08'2 0.1
2017-Jun-21 05:37N 54°41' W 001°07'216.0
2017-Jun-21 05:30N 54°42' W 001°04'917.5
2017-Jun-21 05:01N 54°46' W 000°51'916.8
2017-Jun-21 04:30N 54°50' W 000°37'816.6
2017-Jun-21 03:59N 54°53' W 000°24'40516.7
2017-Jun-20 03:44N 57°49' E 010°35'416.5
2017-Jun-20 03:30N 57°50' E 010°42'815.6
2017-Jun-20 03:00N 57°45' E 010°54'816.1
2017-Jun-20 02:30N 57°39' E 011°04'815.5
2017-Jun-20 02:00N 57°34' E 011°14'815.6
2017-Jun-20 01:30N 57°28' E 011°25'815.9
2017-Jun-20 01:00N 57°21' E 011°30'816.1
2017-Jun-20 00:30N 57°13' E 011°35'816.1
2017-Jun-19 23:59N 57°06' E 011°41'1717.0
2017-Jun-19 23:01N 56°50' E 011°52'016.4
2017-Jun-19 23:00N 56°50' E 011°52'916.2
2017-Jun-19 22:25N 56°41' E 011°51'717.8
2017-Jun-19 22:00N 56°35' E 011°43'8015.6
2017-Jun-19 16:54N 55°18' E 011°03'616.1
2017-Jun-19 16:30N 55°12' E 011°06'816.3
2017-Jun-19 16:00N 55°04' E 011°02'816.1
2017-Jun-19 15:31N 54°57' E 010°57'816.5
2017-Jun-19 15:01N 54°49' E 010°52'1514.7
2017-Jun-19 14:01N 54°38' E 011°08'917.1
2017-Jun-19 13:31N 54°34' E 011°21'917.3
2017-Jun-19 13:00N 54°30' E 011°35'916.6
2017-Jun-19 12:28N 54°27' E 011°49'816.6
2017-Jun-19 12:00N 54°27' E 012°03'714.0
2017-Jun-19 11:30N 54°30' E 012°13'2016.2
2017-Jun-19 10:18N 54°45' E 012°36'516.8
2017-Jun-19 09:58N 54°48' E 012°44'816.8
2017-Jun-19 09:29N 54°50' E 012°57'817.0
2017-Jun-19 09:00N 54°53' E 013°10'817.0
2017-Jun-19 08:31N 54°56' E 013°24'917.0
2017-Jun-19 08:00N 54°59' E 013°38'816.9
2017-Jun-19 07:30N 55°02' E 013°52'816.7
2017-Jun-19 07:01N 55°05' E 014°06'917.0
2017-Jun-19 06:31N 55°12' E 014°15'917.0
2017-Jun-19 06:01N 55°18' E 014°24'816.9
2017-Jun-19 05:30N 55°25' E 014°34'816.1
2017-Jun-19 05:01N 55°26' E 014°48'816.8
2017-Jun-19 04:30N 55°27' E 015°03'816.7
2017-Jun-19 04:00N 55°27' E 015°17'816.8
2017-Jun-19 03:31N 55°28' E 015°32'816.8
2017-Jun-19 03:01N 55°28' E 015°47'816.7
2017-Jun-19 02:31N 55°28' E 016°02'816.9
2017-Jun-19 02:01N 55°29' E 016°16'816.8
2017-Jun-19 01:31N 55°29' E 016°31'816.8
2017-Jun-19 01:00N 55°29' E 016°46'816.8
2017-Jun-19 00:31N 55°30' E 017°01'916.8
2017-Jun-18 23:58N 55°30' E 017°17'13211.0
2017-Jun-18 12:01N 55°39' E 021°10'0 0.0
2017-Jun-18 11:59N 55°39' E 021°10'0 0.0
2017-Jun-18 11:30N 55°39' E 021°10'6 1.0
2017-Jun-18 05:28N 55°44' E 021°04'710.6
2017-Jun-18 04:49N 55°46' E 020°53'516.0
2017-Jun-18 04:29N 55°50' E 020°47'1116.1
2017-Jun-18 03:49N 55°60' E 020°39'816.7
2017-Jun-18 03:20N 56°08' E 020°37'8717.0
2017-Jun-17 22:14N 57°34' E 020°43'417.0
2017-Jun-17 21:59N 57°39' E 020°45'1017.2
2017-Jun-17 21:25N 57°48' E 020°50'1017.3
2017-Jun-17 20:50N 57°58' E 020°56'917.2
2017-Jun-17 20:18N 58°06' E 021°01'517.1
2017-Jun-17 20:01N 58°11' E 021°04'917.7
2017-Jun-17 19:30N 58°19' E 021°08'816.5
2017-Jun-17 19:00N 58°27' E 021°13'917.1
2017-Jun-17 18:30N 58°36' E 021°17'917.1
2017-Jun-17 18:00N 58°44' E 021°21'917.1
2017-Jun-17 17:30N 58°52' E 021°25'917.2
2017-Jun-17 17:00N 59°00' E 021°30'816.9
2017-Jun-17 16:30N 59°08' E 021°38'917.1
2017-Jun-17 16:00N 59°14' E 021°50'917.0
2017-Jun-17 15:30N 59°19' E 022°03'816.9
2017-Jun-17 15:00N 59°24' E 022°16'1717.2
2017-Jun-17 14:00N 59°32' E 022°47'917.2
2017-Jun-17 13:31N 59°34' E 023°03'917.2
2017-Jun-17 13:01N 59°37' E 023°19'917.4
2017-Jun-17 12:30N 59°39' E 023°36'917.2
2017-Jun-17 12:01N 59°42' E 023°52'917.3
2017-Jun-17 11:30N 59°44' E 024°08'917.4
2017-Jun-17 11:00N 59°47' E 024°25'917.2
2017-Jun-17 10:30N 59°51' E 024°40'917.2
2017-Jun-17 10:00N 59°55' E 024°55'816.6
2017-Jun-17 09:30N 60°01' E 025°06'917.0
2017-Jun-17 09:00N 60°09' E 025°12'4 7.6
2017-Jun-17 08:30N 60°13' E 025°12'0 0.0
2017-Jun-17 08:00N 60°13' E 025°12'0 0.0
2017-Jun-17 07:30N 60°13' E 025°12'0 0.0
2017-Jun-17 07:00N 60°13' E 025°12'0 0.0
2017-Jun-17 06:30N 60°13' E 025°12'0 0.0
2017-Jun-17 06:00N 60°13' E 025°12'0 0.0
2017-Jun-17 05:30N 60°13' E 025°12'0 0.0
2017-Jun-17 05:00N 60°13' E 025°12'0 0.0
2017-Jun-17 04:30N 60°13' E 025°12'0 0.0
2017-Jun-17 04:00N 60°13' E 025°12'0 0.0
2017-Jun-17 03:30N 60°13' E 025°12'0 0.0
2017-Jun-17 03:00N 60°13' E 025°12'0 0.0
2017-Jun-17 02:30N 60°13' E 025°12'0 0.0
2017-Jun-17 02:00N 60°13' E 025°12'0 0.0
2017-Jun-17 01:30N 60°13' E 025°12'0 0.0
2017-Jun-17 01:00N 60°13' E 025°12'0 0.0
2017-Jun-17 00:30N 60°13' E 025°12'0 0.0
2017-Jun-17 00:00N 60°13' E 025°12'0 0.0
2017-Jun-16 23:30N 60°13' E 025°12'0 0.0
2017-Jun-16 23:00N 60°13' E 025°12'0 0.0
2017-Jun-16 22:30N 60°13' E 025°12'0 0.0
2017-Jun-16 22:00N 60°13' E 025°12'0 0.0
2017-Jun-16 21:30N 60°13' E 025°12'0 0.0
2017-Jun-16 21:00N 60°13' E 025°12'0 0.0
2017-Jun-16 20:30N 60°13' E 025°12'0 0.0
2017-Jun-16 20:00N 60°13' E 025°12'0 0.0
2017-Jun-16 19:30N 60°13' E 025°12'0 0.0
2017-Jun-16 19:00N 60°13' E 025°12'0 0.0
2017-Jun-16 18:30N 60°13' E 025°12'0 0.0
2017-Jun-16 18:00N 60°13' E 025°12'0 0.0
2017-Jun-16 17:30N 60°13' E 025°12'0 0.0
2017-Jun-16 17:00N 60°13' E 025°12'0 0.0
2017-Jun-16 16:31N 60°13' E 025°12'0 0.0
2017-Jun-16 16:00N 60°13' E 025°12'0 0.0
2017-Jun-16 15:30N 60°13' E 025°12'0 0.0
2017-Jun-16 15:00N 60°13' E 025°12'0 0.0
2017-Jun-16 14:30N 60°13' E 025°12'0 0.0
2017-Jun-16 13:30N 60°13' E 025°12'0 0.0
2017-Jun-16 13:00N 60°13' E 025°12'0 0.0
2017-Jun-16 12:30N 60°13' E 025°12'  
Track history (hours):
 
Tides and Currents Weather Stations Pressure Air Temp Water Temp Dewpoint Dewpoint Depression Visibility Wind Speed Wind Dir Waves Ship Positions

Containerships 6

Last reported at 2017-Jun-26 12:00 UTC. Time now 2017-Jun-26 12:22 UTC.
Position N 60°13' E 025°12'.

Length 155 m; beam 21.8 m; draft 8.9 m.

Type: Ship (hazmat cat A). MMSI: 211315096.

Date/timePositionNaut miles runAvg speedWind from/ knotsBaromVisibWave heightAir tempDewpointWater temp
2017-Jun-26 12:00N 60°13' E 025°12'0 0.0
2017-Jun-26 11:30N 60°13' E 025°12'0 0.0
2017-Jun-26 11:00N 60°13' E 025°12'0 0.0
2017-Jun-26 10:30N 60°13' E 025°12'0 0.0
2017-Jun-26 10:00N 60°13' E 025°12'0 0.0
2017-Jun-26 09:30N 60°13' E 025°12'0 0.0
2017-Jun-26 09:00N 60°13' E 025°12'0 0.0
2017-Jun-26 08:30N 60°13' E 025°12'0 0.0
2017-Jun-26 08:00N 60°13' E 025°12'0 0.0
2017-Jun-26 07:30N 60°13' E 025°12'0 0.0
2017-Jun-26 07:00N 60°13' E 025°12'0 0.0
2017-Jun-26 06:30N 60°13' E 025°12'0 0.0
2017-Jun-26 06:00N 60°13' E 025°12'0 0.0
2017-Jun-26 05:30N 60°13' E 025°12'0 0.0
2017-Jun-26 05:00N 60°13' E 025°12'0 0.0
2017-Jun-26 04:30N 60°13' E 025°12'0 0.0
2017-Jun-26 04:00N 60°13' E 025°12'0 0.0
2017-Jun-26 03:30N 60°13' E 025°12'1 2.1
2017-Jun-26 03:00N 60°12' E 025°13'713.9
2017-Jun-26 02:30N 60°05' E 025°10'917.9
2017-Jun-26 02:00N 59°57' E 025°04'816.7
2017-Jun-26 01:31N 59°50' E 024°56'816.4
2017-Jun-26 01:00N 59°46' E 024°42'816.4
2017-Jun-26 00:30N 59°44' E 024°26'816.2
2017-Jun-26 00:01N 59°42' E 024°11'816.3
2017-Jun-25 23:30N 59°39' E 023°55'816.1
2017-Jun-25 23:01N 59°37' E 023°40'815.9
2017-Jun-25 22:31N 59°34' E 023°25'815.9
2017-Jun-25 22:00N 59°31' E 023°11'815.8
2017-Jun-25 21:30N 59°29' E 022°56'815.8
2017-Jun-25 21:00N 59°26' E 022°41'815.6
2017-Jun-25 20:30N 59°22' E 022°28'816.0
2017-Jun-25 20:00N 59°17' E 022°16'816.2
2017-Jun-25 19:30N 59°12' E 022°04'816.3
2017-Jun-25 19:00N 59°06' E 021°52'816.3
2017-Jun-25 18:30N 59°00' E 021°41'816.7
2017-Jun-25 18:00N 58°54' E 021°32'816.4
2017-Jun-25 17:30N 58°47' E 021°23'816.3
2017-Jun-25 17:00N 58°40' E 021°15'816.6
2017-Jun-25 16:30N 58°33' E 021°05'20616.8
2017-Jun-25 04:14N 56°03' E 016°45'417.2
2017-Jun-25 04:00N 56°01' E 016°39'917.2
2017-Jun-25 03:31N 55°57' E 016°26'917.3
2017-Jun-25 03:00N 55°52' E 016°12'917.4
2017-Jun-25 02:31N 55°48' E 015°59'917.5
2017-Jun-25 02:01N 55°44' E 015°46'917.6
2017-Jun-25 01:31N 55°39' E 015°32'917.7
2017-Jun-25 01:01N 55°35' E 015°18'917.6
2017-Jun-25 00:31N 55°31' E 015°05'917.5
2017-Jun-25 00:00N 55°27' E 014°51'917.3
2017-Jun-24 23:30N 55°22' E 014°38'917.3
2017-Jun-24 23:00N 55°15' E 014°28'917.3
2017-Jun-24 22:30N 55°09' E 014°18'917.4
2017-Jun-24 22:00N 55°02' E 014°08'917.3
2017-Jun-24 21:30N 54°59' E 013°54'917.6
2017-Jun-24 21:00N 54°56' E 013°40'917.6
2017-Jun-24 20:29N 54°53' E 013°25'1117.2
2017-Jun-24 19:50N 54°49' E 013°07'617.2
2017-Jun-24 19:31N 54°47' E 012°57'2217.4
2017-Jun-24 18:14N 54°37' E 012°24'517.4
2017-Jun-24 17:56N 54°33' E 012°17'717.2
2017-Jun-24 17:30N 54°27' E 012°12'3416.6
2017-Jun-24 15:29N 54°33' E 011°15'817.4
2017-Jun-24 15:01N 54°35' E 011°01'1717.3
2017-Jun-24 14:00N 54°32' E 010°31'816.5
2017-Jun-24 13:31N 54°29' E 010°18'612.3
2017-Jun-24 13:00N 54°24' E 010°12'37 6.2
2017-Jun-24 07:05N 54°04' E 009°19'1 7.8
2017-Jun-24 06:58N 54°03' E 009°19'2 4.3
2017-Jun-24 06:25N 54°01' E 009°18'3 7.6
2017-Jun-24 06:00N 53°58' E 009°16'2 4.1
2017-Jun-24 05:30N 53°57' E 009°14'1 1.0
2017-Jun-24 05:00N 53°56' E 009°13'3 6.3
2017-Jun-24 04:30N 53°54' E 009°09'1 1.3
2017-Jun-24 04:00N 53°54' E 009°09'1 2.9
2017-Jun-24 03:30N 53°53' E 009°06'0 0.2
2017-Jun-24 03:00N 53°53' E 009°06'0 0.1
2017-Jun-24 02:30N 53°53' E 009°06'0 0.4
2017-Jun-24 02:00N 53°53' E 009°06'0 0.0
2017-Jun-24 01:30N 53°53' E 009°06'1 1.1
2017-Jun-24 01:00N 53°53' E 009°06'611.4
2017-Jun-24 00:30N 53°51' E 008°57'815.8
2017-Jun-24 00:01N 53°52' E 008°44'816.5
2017-Jun-23 23:30N 53°58' E 008°34'918.4
2017-Jun-23 23:00N 53°59' E 008°18'713.0
2017-Jun-23 22:30N 53°59' E 008°07'917.6
2017-Jun-23 22:00N 53°57' E 007°52'7419.4
2017-Jun-23 18:10N 53°38' E 005°51'319.7
2017-Jun-23 18:00N 53°37' E 005°46'1019.7
2017-Jun-23 17:28N 53°33' E 005°29'919.6
2017-Jun-23 17:00N 53°31' E 005°15'1019.6
2017-Jun-23 16:30N 53°27' E 004°59'1019.7
2017-Jun-23 16:00N 53°23' E 004°44'1420.0
2017-Jun-23 15:18N 53°10' E 004°33'620.4
2017-Jun-23 15:00N 53°05' E 004°28'2020.1
2017-Jun-23 14:00N 52°48' E 004°12'1220.0
2017-Jun-23 13:25N 52°38' E 004°02'819.9
2017-Jun-23 13:00N 52°30' E 003°55'1019.8
2017-Jun-23 12:30N 52°21' E 003°52'919.0
2017-Jun-23 12:00N 52°11' E 003°54'918.1
2017-Jun-23 11:30N 52°03' E 003°59'714.8
2017-Jun-23 11:00N 51°58' E 004°08'612.0
2017-Jun-23 10:30N 51°54' E 004°16'5 9.3
2017-Jun-23 10:00N 51°54' E 004°23'2 3.0
2017-Jun-23 09:30N 51°53' E 004°25'0 0.0
2017-Jun-23 09:00N 51°53' E 004°25'0 0.0
2017-Jun-23 08:30N 51°53' E 004°25'0 0.0
2017-Jun-23 08:00N 51°53' E 004°25'0 0.0
2017-Jun-23 07:30N 51°53' E 004°25'0 0.0
2017-Jun-23 07:00N 51°53' E 004°25'0 0.0
2017-Jun-23 06:30N 51°53' E 004°25'0 0.0
2017-Jun-23 06:00N 51°53' E 004°25'0 0.0
2017-Jun-23 05:30N 51°53' E 004°25'0 0.0
2017-Jun-23 05:00N 51°53' E 004°25'0 0.0
2017-Jun-23 04:30N 51°53' E 004°25'0 0.0
2017-Jun-23 04:00N 51°53' E 004°25'0 0.0
2017-Jun-23 03:30N 51°53' E 004°25'0 0.0
2017-Jun-23 03:00N 51°53' E 004°25'0 0.0
2017-Jun-23 02:30N 51°53' E 004°25'0 0.1
2017-Jun-23 02:00N 51°53' E 004°25'0 0.1
2017-Jun-23 01:30N 51°53' E 004°25'0 0.0
2017-Jun-23 01:00N 51°53' E 004°25'0 0.0
2017-Jun-23 00:30N 51°53' E 004°25'0 0.0
2017-Jun-23 00:00N 51°53' E 004°25'0 0.0
2017-Jun-22 23:30N 51°53' E 004°25'0 0.0
2017-Jun-22 23:00N 51°53' E 004°25'0 0.0
2017-Jun-22 22:30N 51°53' E 004°25'0 0.0
2017-Jun-22 22:00N 51°53' E 004°25'0 0.0
2017-Jun-22 21:30N 51°53' E 004°25'0 0.0
2017-Jun-22 21:00N 51°53' E 004°25'0 0.0
2017-Jun-22 20:30N 51°53' E 004°25'0 0.0
2017-Jun-22 20:00N 51°53' E 004°25'0 0.0
2017-Jun-22 19:30N 51°53' E 004°25'0 0.0
2017-Jun-22 19:00N 51°53' E 004°25'0 0.0
2017-Jun-22 18:30N 51°53' E 004°25'0 0.0
2017-Jun-22 18:00N 51°53' E 004°25'0 0.0
2017-Jun-22 17:30N 51°53' E 004°25'0 0.0
2017-Jun-22 17:00N 51°53' E 004°25'0 0.0
2017-Jun-22 16:30N 51°53' E 004°25'0 0.0
2017-Jun-22 16:00N 51°53' E 004°25'3 5.1
2017-Jun-22 15:30N 51°54' E 004°21'510.0
2017-Jun-22 15:01N 51°55' E 004°14'1414.3
2017-Jun-22 14:00N 52°01' E 003°52'918.5
2017-Jun-22 13:31N 52°04' E 003°38'1528.8
2017-Jun-22 13:00N 52°12' E 003°19'4 7.6
2017-Jun-22 12:30N 52°15' E 003°14'1218.2
2017-Jun-22 11:51N 52°21' E 002°57'818.2
2017-Jun-22 11:24N 52°26' E 002°46'718.3
2017-Jun-22 11:00N 52°30' E 002°36'1018.4
2017-Jun-22 10:28N 52°36' E 002°23'918.5
2017-Jun-22 10:00N 52°40' E 002°11'918.5
2017-Jun-22 09:30N 52°46' E 001°59'919.0
2017-Jun-22 09:01N 52°51' E 001°46'918.8
2017-Jun-22 08:30N 52°57' E 001°35'1019.4
2017-Jun-22 08:00N 53°05' E 001°26'1019.5
2017-Jun-22 07:30N 53°13' E 001°17'1019.3
2017-Jun-22 07:00N 53°22' E 001°08'2218.7
2017-Jun-22 05:49N 53°41' E 000°49'1119.1
2017-Jun-22 05:14N 53°49' E 000°35'519.2
2017-Jun-22 04:57N 53°53' E 000°30'919.7
2017-Jun-22 04:29N 53°59' E 000°19'1020.0
2017-Jun-22 04:00N 54°07' E 000°08'1020.4
2017-Jun-22 03:30N 54°14' W 000°03'1020.3
2017-Jun-22 03:01N 54°21' W 000°16'1020.5
2017-Jun-22 02:30N 54°29' W 000°28'2519.4
2017-Jun-22 01:12N 54°40' W 001°08'2 0.1
2017-Jun-21 05:37N 54°41' W 001°07'216.0
2017-Jun-21 05:30N 54°42' W 001°04'917.5
2017-Jun-21 05:01N 54°46' W 000°51'916.8
2017-Jun-21 04:30N 54°50' W 000°37'816.6
2017-Jun-21 03:59N 54°53' W 000°24'40516.7
2017-Jun-20 03:44N 57°49' E 010°35'416.5
2017-Jun-20 03:30N 57°50' E 010°42'815.6
2017-Jun-20 03:00N 57°45' E 010°54'816.1
2017-Jun-20 02:30N 57°39' E 011°04'815.5
2017-Jun-20 02:00N 57°34' E 011°14'815.6
2017-Jun-20 01:30N 57°28' E 011°25'815.9
2017-Jun-20 01:00N 57°21' E 011°30'816.1
2017-Jun-20 00:30N 57°13' E 011°35'816.1
2017-Jun-19 23:59N 57°06' E 011°41'1717.0
2017-Jun-19 23:01N 56°50' E 011°52'016.4
2017-Jun-19 23:00N 56°50' E 011°52'916.2
2017-Jun-19 22:25N 56°41' E 011°51'717.8
2017-Jun-19 22:00N 56°35' E 011°43'8015.6
2017-Jun-19 16:54N 55°18' E 011°03'616.1
2017-Jun-19 16:30N 55°12' E 011°06'816.3
2017-Jun-19 16:00N 55°04' E 011°02'816.1
2017-Jun-19 15:31N 54°57' E 010°57'816.5
2017-Jun-19 15:01N 54°49' E 010°52'1514.7
2017-Jun-19 14:01N 54°38' E 011°08'917.1
2017-Jun-19 13:31N 54°34' E 011°21'917.3
2017-Jun-19 13:00N 54°30' E 011°35'916.6
2017-Jun-19 12:28N 54°27' E 011°49'816.6
2017-Jun-19 12:00N 54°27' E 012°03'714.0
2017-Jun-19 11:30N 54°30' E 012°13'2016.2
2017-Jun-19 10:18N 54°45' E 012°36'516.8
2017-Jun-19 09:58N 54°48' E 012°44'816.8
2017-Jun-19 09:29N 54°50' E 012°57'817.0
2017-Jun-19 09:00N 54°53' E 013°10'817.0
2017-Jun-19 08:31N 54°56' E 013°24'917.0
2017-Jun-19 08:00N 54°59' E 013°38'816.9
2017-Jun-19 07:30N 55°02' E 013°52'816.7
2017-Jun-19 07:01N 55°05' E 014°06'917.0
2017-Jun-19 06:31N 55°12' E 014°15'917.0
2017-Jun-19 06:01N 55°18' E 014°24'816.9
2017-Jun-19 05:30N 55°25' E 014°34'816.1
2017-Jun-19 05:01N 55°26' E 014°48'816.8
2017-Jun-19 04:30N 55°27' E 015°03'816.7
2017-Jun-19 04:00N 55°27' E 015°17'816.8
2017-Jun-19 03:31N 55°28' E 015°32'816.8
2017-Jun-19 03:01N 55°28' E 015°47'816.7
2017-Jun-19 02:31N 55°28' E 016°02'816.9
2017-Jun-19 02:01N 55°29' E 016°16'816.8
2017-Jun-19 01:31N 55°29' E 016°31'816.8
2017-Jun-19 01:00N 55°29' E 016°46'816.8
2017-Jun-19 00:31N 55°30' E 017°01'916.8
2017-Jun-18 23:58N 55°30' E 017°17'13211.0
2017-Jun-18 12:01N 55°39' E 021°10'0 0.0
2017-Jun-18 11:59N 55°39' E 021°10'0 0.0
2017-Jun-18 11:30N 55°39' E 021°10'6 1.0
2017-Jun-18 05:28N 55°44' E 021°04'710.6
2017-Jun-18 04:49N 55°46' E 020°53'516.0
2017-Jun-18 04:29N 55°50' E 020°47'1116.1
2017-Jun-18 03:49N 55°60' E 020°39'816.7
2017-Jun-18 03:20N 56°08' E 020°37'8717.0
2017-Jun-17 22:14N 57°34' E 020°43'417.0
2017-Jun-17 21:59N 57°39' E 020°45'1017.2
2017-Jun-17 21:25N 57°48' E 020°50'1017.3
2017-Jun-17 20:50N 57°58' E 020°56'917.2
2017-Jun-17 20:18N 58°06' E 021°01'517.1
2017-Jun-17 20:01N 58°11' E 021°04'917.7
2017-Jun-17 19:30N 58°19' E 021°08'816.5
2017-Jun-17 19:00N 58°27' E 021°13'917.1
2017-Jun-17 18:30N 58°36' E 021°17'917.1
2017-Jun-17 18:00N 58°44' E 021°21'917.1
2017-Jun-17 17:30N 58°52' E 021°25'917.2
2017-Jun-17 17:00N 59°00' E 021°30'816.9
2017-Jun-17 16:30N 59°08' E 021°38'917.1
2017-Jun-17 16:00N 59°14' E 021°50'917.0
2017-Jun-17 15:30N 59°19' E 022°03'816.9
2017-Jun-17 15:00N 59°24' E 022°16'1717.2
2017-Jun-17 14:00N 59°32' E 022°47'917.2
2017-Jun-17 13:31N 59°34' E 023°03'917.2
2017-Jun-17 13:01N 59°37' E 023°19'917.4
2017-Jun-17 12:30N 59°39' E 023°36'917.2
2017-Jun-17 12:01N 59°42' E 023°52'917.3
2017-Jun-17 11:30N 59°44' E 024°08'917.4
2017-Jun-17 11:00N 59°47' E 024°25'917.2
2017-Jun-17 10:30N 59°51' E 024°40'917.2
2017-Jun-17 10:00N 59°55' E 024°55'816.6
2017-Jun-17 09:30N 60°01' E 025°06'917.0
2017-Jun-17 09:00N 60°09' E 025°12'4 7.6
2017-Jun-17 08:30N 60°13' E 025°12'0 0.0
2017-Jun-17 08:00N 60°13' E 025°12'0 0.0
2017-Jun-17 07:30N 60°13' E 025°12'0 0.0
2017-Jun-17 07:00N 60°13' E 025°12'0 0.0
2017-Jun-17 06:30N 60°13' E 025°12'0 0.0
2017-Jun-17 06:00N 60°13' E 025°12'0 0.0
2017-Jun-17 05:30N 60°13' E 025°12'0 0.0
2017-Jun-17 05:00N 60°13' E 025°12'0 0.0
2017-Jun-17 04:30N 60°13' E 025°12'0 0.0
2017-Jun-17 04:00N 60°13' E 025°12'0 0.0
2017-Jun-17 03:30N 60°13' E 025°12'0 0.0
2017-Jun-17 03:00N 60°13' E 025°12'0 0.0
2017-Jun-17 02:30N 60°13' E 025°12'0 0.0
2017-Jun-17 02:00N 60°13' E 025°12'0 0.0
2017-Jun-17 01:30N 60°13' E 025°12'0 0.0
2017-Jun-17 01:00N 60°13' E 025°12'0 0.0
2017-Jun-17 00:30N 60°13' E 025°12'0 0.0
2017-Jun-17 00:00N 60°13' E 025°12'0 0.0
2017-Jun-16 23:30N 60°13' E 025°12'0 0.0
2017-Jun-16 23:00N 60°13' E 025°12'0 0.0
2017-Jun-16 22:30N 60°13' E 025°12'0 0.0
2017-Jun-16 22:00N 60°13' E 025°12'0 0.0
2017-Jun-16 21:30N 60°13' E 025°12'0 0.0
2017-Jun-16 21:00N 60°13' E 025°12'0 0.0
2017-Jun-16 20:30N 60°13' E 025°12'0 0.0
2017-Jun-16 20:00N 60°13' E 025°12'0 0.0
2017-Jun-16 19:30N 60°13' E 025°12'0 0.0
2017-Jun-16 19:00N 60°13' E 025°12'0 0.0
2017-Jun-16 18:30N 60°13' E 025°12'0 0.0
2017-Jun-16 18:00N 60°13' E 025°12'0 0.0
2017-Jun-16 17:30N 60°13' E 025°12'0 0.0
2017-Jun-16 17:00N 60°13' E 025°12'0 0.0
2017-Jun-16 16:31N 60°13' E 025°12'0 0.0
2017-Jun-16 16:00N 60°13' E 025°12'0 0.0
2017-Jun-16 15:30N 60°13' E 025°12'0 0.0
2017-Jun-16 15:00N 60°13' E 025°12'0 0.0
2017-Jun-16 14:30N 60°13' E 025°12'0 0.0
2017-Jun-16 13:30N 60°13' E 025°12'0 0.0
2017-Jun-16 13:00N 60°13' E 025°12'0 0.0
2017-Jun-16 12:30N 60°13' E 025°12'  

Dump ship's entire track history